sensor_id;sensor_type;location;lat;lon;timestamp;P1;durP1;ratioP1;P2;durP2;ratioP2
23614;SDS011;11985;49.404;7.734;2024-02-16T00:00:22;3.20;;;1.40;;
23614;SDS011;11985;49.404;7.734;2024-02-16T00:05:24;5.32;;;1.40;;
23614;SDS011;11985;49.404;7.734;2024-02-16T00:10:26;2.50;;;1.23;;
23614;SDS011;11985;49.404;7.734;2024-02-16T00:15:30;7.60;;;1.60;;
23614;SDS011;11985;49.404;7.734;2024-02-16T00:20:33;3.58;;;1.55;;
23614;SDS011;11985;49.404;7.734;2024-02-16T00:25:35;4.70;;;1.80;;
23614;SDS011;11985;49.404;7.734;2024-02-16T00:30:42;4.65;;;1.65;;
23614;SDS011;11985;49.404;7.734;2024-02-16T00:35:43;5.40;;;1.70;;
23614;SDS011;11985;49.404;7.734;2024-02-16T00:40:48;4.17;;;1.70;;
23614;SDS011;11985;49.404;7.734;2024-02-16T00:45:51;6.97;;;1.60;;
23614;SDS011;11985;49.404;7.734;2024-02-16T00:50:53;5.78;;;1.70;;
23614;SDS011;11985;49.404;7.734;2024-02-16T00:55:56;2.80;;;1.67;;
23614;SDS011;11985;49.404;7.734;2024-02-16T01:00:58;6.20;;;2.53;;
23614;SDS011;11985;49.404;7.734;2024-02-16T01:06:00;4.78;;;1.95;;
23614;SDS011;11985;49.404;7.734;2024-02-16T01:11:02;3.58;;;1.77;;
23614;SDS011;11985;49.404;7.734;2024-02-16T01:16:07;4.57;;;1.75;;
23614;SDS011;11985;49.404;7.734;2024-02-16T01:21:11;3.42;;;1.50;;
23614;SDS011;11985;49.404;7.734;2024-02-16T01:26:13;3.80;;;1.65;;
23614;SDS011;11985;49.404;7.734;2024-02-16T01:31:17;5.18;;;1.67;;
23614;SDS011;11985;49.404;7.734;2024-02-16T01:36:19;4.03;;;2.10;;
23614;SDS011;11985;49.404;7.734;2024-02-16T01:41:21;2.90;;;1.52;;
23614;SDS011;11985;49.404;7.734;2024-02-16T01:46:25;4.20;;;1.75;;
23614;SDS011;11985;49.404;7.734;2024-02-16T01:51:27;4.53;;;2.08;;
23614;SDS011;11985;49.404;7.734;2024-02-16T01:56:30;4.22;;;2.08;;
23614;SDS011;11985;49.404;7.734;2024-02-16T02:01:34;3.30;;;1.58;;
23614;SDS011;11985;49.404;7.734;2024-02-16T02:06:36;4.97;;;1.67;;
23614;SDS011;11985;49.404;7.734;2024-02-16T02:11:40;3.35;;;1.77;;
23614;SDS011;11985;49.404;7.734;2024-02-16T02:16:43;3.65;;;1.90;;
23614;SDS011;11985;49.404;7.734;2024-02-16T02:21:45;6.63;;;1.80;;
23614;SDS011;11985;49.404;7.734;2024-02-16T02:26:48;2.95;;;1.80;;
23614;SDS011;11985;49.404;7.734;2024-02-16T02:31:52;4.93;;;1.83;;
23614;SDS011;11985;49.404;7.734;2024-02-16T02:36:56;5.97;;;2.05;;
23614;SDS011;11985;49.404;7.734;2024-02-16T02:41:59;3.72;;;1.80;;
23614;SDS011;11985;49.404;7.734;2024-02-16T02:47:01;3.30;;;1.70;;
23614;SDS011;11985;49.404;7.734;2024-02-16T02:52:03;4.97;;;1.80;;
23614;SDS011;11985;49.404;7.734;2024-02-16T02:57:08;4.00;;;1.75;;
23614;SDS011;11985;49.404;7.734;2024-02-16T03:02:09;5.22;;;1.80;;
23614;SDS011;11985;49.404;7.734;2024-02-16T03:07:11;5.15;;;1.80;;
23614;SDS011;11985;49.404;7.734;2024-02-16T03:12:15;4.40;;;1.60;;
23614;SDS011;11985;49.404;7.734;2024-02-16T03:17:17;5.60;;;1.80;;
23614;SDS011;11985;49.404;7.734;2024-02-16T03:22:23;5.50;;;1.70;;
23614;SDS011;11985;49.404;7.734;2024-02-16T03:27:26;3.22;;;1.60;;
23614;SDS011;11985;49.404;7.734;2024-02-16T03:32:28;4.18;;;1.85;;
23614;SDS011;11985;49.404;7.734;2024-02-16T03:37:30;5.55;;;1.80;;
23614;SDS011;11985;49.404;7.734;2024-02-16T03:42:33;5.13;;;2.15;;
23614;SDS011;11985;49.404;7.734;2024-02-16T03:47:35;7.78;;;1.92;;
23614;SDS011;11985;49.404;7.734;2024-02-16T03:52:37;4.22;;;1.60;;
23614;SDS011;11985;49.404;7.734;2024-02-16T03:57:40;5.28;;;1.77;;
23614;SDS011;11985;49.404;7.734;2024-02-16T04:02:42;2.53;;;1.70;;
23614;SDS011;11985;49.404;7.734;2024-02-16T04:07:45;2.60;;;1.38;;
23614;SDS011;11985;49.404;7.734;2024-02-16T04:12:51;4.22;;;1.80;;
23614;SDS011;11985;49.404;7.734;2024-02-16T04:17:53;5.32;;;2.10;;
23614;SDS011;11985;49.404;7.734;2024-02-16T04:22:55;4.80;;;1.85;;
23614;SDS011;11985;49.404;7.734;2024-02-16T04:27:58;3.00;;;1.50;;
23614;SDS011;11985;49.404;7.734;2024-02-16T04:33:00;3.85;;;1.88;;
23614;SDS011;11985;49.404;7.734;2024-02-16T04:38:04;3.30;;;1.97;;
23614;SDS011;11985;49.404;7.734;2024-02-16T04:43:08;5.85;;;2.00;;
23614;SDS011;11985;49.404;7.734;2024-02-16T04:48:10;4.45;;;1.83;;
23614;SDS011;11985;49.404;7.734;2024-02-16T04:53:12;6.55;;;2.08;;
23614;SDS011;11985;49.404;7.734;2024-02-16T04:58:16;6.00;;;2.10;;
23614;SDS011;11985;49.404;7.734;2024-02-16T05:03:18;5.15;;;2.05;;
23614;SDS011;11985;49.404;7.734;2024-02-16T05:08:21;3.88;;;1.60;;
23614;SDS011;11985;49.404;7.734;2024-02-16T05:13:25;5.03;;;1.67;;
23614;SDS011;11985;49.404;7.734;2024-02-16T05:18:26;3.42;;;1.67;;
23614;SDS011;11985;49.404;7.734;2024-02-16T05:23:28;4.47;;;1.60;;
23614;SDS011;11985;49.404;7.734;2024-02-16T05:28:33;7.47;;;1.70;;
23614;SDS011;11985;49.404;7.734;2024-02-16T05:33:34;3.67;;;1.58;;
23614;SDS011;11985;49.404;7.734;2024-02-16T05:38:37;2.65;;;1.80;;
23614;SDS011;11985;49.404;7.734;2024-02-16T05:43:44;5.13;;;1.80;;
23614;SDS011;11985;49.404;7.734;2024-02-16T05:48:49;4.35;;;1.75;;
23614;SDS011;11985;49.404;7.734;2024-02-16T05:53:50;3.65;;;1.60;;
23614;SDS011;11985;49.404;7.734;2024-02-16T05:58:54;3.35;;;1.73;;
23614;SDS011;11985;49.404;7.734;2024-02-16T06:03:55;5.72;;;1.70;;
23614;SDS011;11985;49.404;7.734;2024-02-16T06:08:58;4.10;;;1.77;;
23614;SDS011;11985;49.404;7.734;2024-02-16T06:14:02;3.33;;;1.80;;
23614;SDS011;11985;49.404;7.734;2024-02-16T06:19:03;3.97;;;1.50;;
23614;SDS011;11985;49.404;7.734;2024-02-16T06:24:07;3.37;;;1.77;;
23614;SDS011;11985;49.404;7.734;2024-02-16T06:29:10;2.95;;;1.52;;
23614;SDS011;11985;49.404;7.734;2024-02-16T06:34:13;6.05;;;1.58;;
23614;SDS011;11985;49.404;7.734;2024-02-16T06:39:16;2.67;;;1.55;;
23614;SDS011;11985;49.404;7.734;2024-02-16T06:44:20;4.68;;;1.90;;
23614;SDS011;11985;49.404;7.734;2024-02-16T06:49:22;4.43;;;1.85;;
23614;SDS011;11985;49.404;7.734;2024-02-16T06:54:26;5.65;;;1.92;;
23614;SDS011;11985;49.404;7.734;2024-02-16T06:59:32;3.42;;;1.80;;
23614;SDS011;11985;49.404;7.734;2024-02-16T07:04:33;4.97;;;1.48;;
23614;SDS011;11985;49.404;7.734;2024-02-16T07:09:35;7.70;;;1.60;;
23614;SDS011;11985;49.404;7.734;2024-02-16T07:14:38;4.60;;;1.75;;
23614;SDS011;11985;49.404;7.734;2024-02-16T07:19:40;2.67;;;1.67;;
23614;SDS011;11985;49.404;7.734;2024-02-16T07:24:42;7.88;;;2.35;;
23614;SDS011;11985;49.404;7.734;2024-02-16T07:29:46;4.25;;;1.90;;
23614;SDS011;11985;49.404;7.734;2024-02-16T07:34:48;4.32;;;1.67;;
23614;SDS011;11985;49.404;7.734;2024-02-16T07:39:49;3.97;;;1.70;;
23614;SDS011;11985;49.404;7.734;2024-02-16T07:44:54;6.97;;;1.92;;
23614;SDS011;11985;49.404;7.734;2024-02-16T07:49:56;7.57;;;1.90;;
23614;SDS011;11985;49.404;7.734;2024-02-16T07:54:58;3.58;;;1.92;;
23614;SDS011;11985;49.404;7.734;2024-02-16T08:00:01;5.18;;;2.35;;
23614;SDS011;11985;49.404;7.734;2024-02-16T08:05:05;3.40;;;1.50;;
23614;SDS011;11985;49.404;7.734;2024-02-16T08:10:08;4.47;;;1.40;;
23614;SDS011;11985;49.404;7.734;2024-02-16T08:15:14;3.88;;;1.90;;
23614;SDS011;11985;49.404;7.734;2024-02-16T08:20:15;3.75;;;1.85;;
23614;SDS011;11985;49.404;7.734;2024-02-16T08:25:17;4.75;;;1.60;;
23614;SDS011;11985;49.404;7.734;2024-02-16T08:30:22;6.47;;;1.90;;
23614;SDS011;11985;49.404;7.734;2024-02-16T08:40:27;4.93;;;1.80;;
23614;SDS011;11985;49.404;7.734;2024-02-16T08:45:30;5.65;;;2.10;;
23614;SDS011;11985;49.404;7.734;2024-02-16T08:50:33;5.88;;;1.90;;
23614;SDS011;11985;49.404;7.734;2024-02-16T08:55:34;4.35;;;1.70;;
23614;SDS011;11985;49.404;7.734;2024-02-16T09:00:38;7.43;;;1.90;;
23614;SDS011;11985;49.404;7.734;2024-02-16T09:05:41;3.17;;;1.67;;
23614;SDS011;11985;49.404;7.734;2024-02-16T09:10:43;3.05;;;1.67;;
23614;SDS011;11985;49.404;7.734;2024-02-16T09:15:47;4.72;;;1.70;;
23614;SDS011;11985;49.404;7.734;2024-02-16T09:20:51;3.75;;;1.95;;
23614;SDS011;11985;49.404;7.734;2024-02-16T09:25:53;5.32;;;1.73;;
23614;SDS011;11985;49.404;7.734;2024-02-16T09:30:57;5.50;;;2.08;;
23614;SDS011;11985;49.404;7.734;2024-02-16T09:35:59;4.53;;;1.80;;
23614;SDS011;11985;49.404;7.734;2024-02-16T09:41:01;4.78;;;1.83;;
23614;SDS011;11985;49.404;7.734;2024-02-16T09:46:05;5.60;;;2.00;;
23614;SDS011;11985;49.404;7.734;2024-02-16T09:51:07;5.85;;;2.25;;
23614;SDS011;11985;49.404;7.734;2024-02-16T09:56:09;4.53;;;1.80;;
23614;SDS011;11985;49.404;7.734;2024-02-16T10:01:18;3.35;;;1.85;;
23614;SDS011;11985;49.404;7.734;2024-02-16T10:06:21;3.72;;;2.10;;
23614;SDS011;11985;49.404;7.734;2024-02-16T10:11:24;3.95;;;2.10;;
23614;SDS011;11985;49.404;7.734;2024-02-16T10:16:28;4.67;;;2.07;;
23614;SDS011;11985;49.404;7.734;2024-02-16T10:21:31;5.40;;;1.95;;
23614;SDS011;11985;49.404;7.734;2024-02-16T10:26:34;8.32;;;2.05;;
23614;SDS011;11985;49.404;7.734;2024-02-16T10:31:40;2.73;;;1.80;;
23614;SDS011;11985;49.404;7.734;2024-02-16T10:36:42;3.95;;;1.90;;
23614;SDS011;11985;49.404;7.734;2024-02-16T10:41:44;3.17;;;1.85;;
23614;SDS011;11985;49.404;7.734;2024-02-16T10:46:52;5.28;;;2.13;;
23614;SDS011;11985;49.404;7.734;2024-02-16T10:51:56;8.70;;;2.22;;
23614;SDS011;11985;49.404;7.734;2024-02-16T10:56:59;6.50;;;1.88;;
23614;SDS011;11985;49.404;7.734;2024-02-16T11:02:02;5.88;;;2.30;;
23614;SDS011;11985;49.404;7.734;2024-02-16T11:07:10;6.35;;;2.00;;
23614;SDS011;11985;49.404;7.734;2024-02-16T11:12:19;5.15;;;2.03;;
23614;SDS011;11985;49.404;7.734;2024-02-16T11:17:23;9.23;;;2.50;;
23614;SDS011;11985;49.404;7.734;2024-02-16T11:22:28;4.28;;;2.13;;
23614;SDS011;11985;49.404;7.734;2024-02-16T11:27:31;4.53;;;2.40;;
23614;SDS011;11985;49.404;7.734;2024-02-16T11:32:37;5.23;;;2.23;;
23614;SDS011;11985;49.404;7.734;2024-02-16T11:37:41;3.20;;;1.80;;
23614;SDS011;11985;49.404;7.734;2024-02-16T11:42:45;6.90;;;2.35;;
23614;SDS011;11985;49.404;7.734;2024-02-16T11:47:48;5.20;;;2.03;;
23614;SDS011;11985;49.404;7.734;2024-02-16T11:52:50;4.22;;;2.22;;
23614;SDS011;11985;49.404;7.734;2024-02-16T11:57:53;4.82;;;2.10;;
23614;SDS011;11985;49.404;7.734;2024-02-16T12:03:01;8.93;;;2.10;;
23614;SDS011;11985;49.404;7.734;2024-02-16T12:08:05;6.88;;;2.83;;
23614;SDS011;11985;49.404;7.734;2024-02-16T12:18:22;5.72;;;2.00;;
23614;SDS011;11985;49.404;7.734;2024-02-16T12:23:24;10.57;;;2.92;;
23614;SDS011;11985;49.404;7.734;2024-02-16T12:28:27;5.25;;;2.10;;
23614;SDS011;11985;49.404;7.734;2024-02-16T12:33:33;11.18;;;2.55;;
23614;SDS011;11985;49.404;7.734;2024-02-16T12:38:35;7.65;;;2.30;;
23614;SDS011;11985;49.404;7.734;2024-02-16T12:43:37;6.65;;;2.45;;
23614;SDS011;11985;49.404;7.734;2024-02-16T12:48:40;8.18;;;1.92;;
23614;SDS011;11985;49.404;7.734;2024-02-16T12:53:43;5.18;;;1.85;;
23614;SDS011;11985;49.404;7.734;2024-02-16T12:58:45;5.60;;;2.05;;
23614;SDS011;11985;49.404;7.734;2024-02-16T13:03:50;4.38;;;2.45;;
23614;SDS011;11985;49.404;7.734;2024-02-16T13:08:53;6.78;;;2.90;;
23614;SDS011;11985;49.404;7.734;2024-02-16T13:13:55;3.00;;;1.75;;
23614;SDS011;11985;49.404;7.734;2024-02-16T13:18:58;4.90;;;2.10;;
23614;SDS011;11985;49.404;7.734;2024-02-16T13:24:00;5.22;;;2.30;;
23614;SDS011;11985;49.404;7.734;2024-02-16T13:29:01;7.32;;;2.50;;
23614;SDS011;11985;49.404;7.734;2024-02-16T13:34:05;7.90;;;2.50;;
23614;SDS011;11985;49.404;7.734;2024-02-16T13:39:07;6.65;;;2.75;;
23614;SDS011;11985;49.404;7.734;2024-02-16T13:44:10;6.97;;;2.25;;
23614;SDS011;11985;49.404;7.734;2024-02-16T13:49:13;6.03;;;2.40;;
23614;SDS011;11985;49.404;7.734;2024-02-16T13:54:15;4.25;;;2.00;;
23614;SDS011;11985;49.404;7.734;2024-02-16T13:59:18;6.32;;;2.13;;
23614;SDS011;11985;49.404;7.734;2024-02-16T14:04:21;7.35;;;2.47;;
23614;SDS011;11985;49.404;7.734;2024-02-16T14:09:24;7.35;;;2.42;;
23614;SDS011;11985;49.404;7.734;2024-02-16T14:14:26;6.25;;;2.63;;
23614;SDS011;11985;49.404;7.734;2024-02-16T14:19:30;5.38;;;2.22;;
23614;SDS011;11985;49.404;7.734;2024-02-16T14:24:34;6.10;;;2.35;;
23614;SDS011;11985;49.404;7.734;2024-02-16T14:29:36;7.00;;;2.35;;
23614;SDS011;11985;49.404;7.734;2024-02-16T14:34:40;9.43;;;3.08;;
23614;SDS011;11985;49.404;7.734;2024-02-16T14:39:44;5.78;;;2.40;;
23614;SDS011;11985;49.404;7.734;2024-02-16T14:44:46;8.50;;;2.78;;
23614;SDS011;11985;49.404;7.734;2024-02-16T14:49:51;5.18;;;2.50;;
23614;SDS011;11985;49.404;7.734;2024-02-16T14:54:56;7.50;;;2.42;;
23614;SDS011;11985;49.404;7.734;2024-02-16T14:59:59;6.85;;;2.50;;
23614;SDS011;11985;49.404;7.734;2024-02-16T15:05:02;5.57;;;2.30;;
23614;SDS011;11985;49.404;7.734;2024-02-16T15:10:05;5.90;;;2.83;;
23614;SDS011;11985;49.404;7.734;2024-02-16T15:15:07;6.70;;;2.28;;
23614;SDS011;11985;49.404;7.734;2024-02-16T15:20:13;8.40;;;3.23;;
23614;SDS011;11985;49.404;7.734;2024-02-16T15:25:17;8.25;;;2.78;;
23614;SDS011;11985;49.404;7.734;2024-02-16T15:30:24;7.07;;;2.42;;
23614;SDS011;11985;49.404;7.734;2024-02-16T15:35:27;5.78;;;2.17;;
23614;SDS011;11985;49.404;7.734;2024-02-16T15:40:29;5.65;;;2.20;;
23614;SDS011;11985;49.404;7.734;2024-02-16T15:45:30;6.78;;;2.28;;
23614;SDS011;11985;49.404;7.734;2024-02-16T15:50:34;10.02;;;2.88;;
23614;SDS011;11985;49.404;7.734;2024-02-16T15:55:37;6.88;;;1.90;;
23614;SDS011;11985;49.404;7.734;2024-02-16T16:00:40;5.65;;;2.00;;
23614;SDS011;11985;49.404;7.734;2024-02-16T16:05:45;6.07;;;2.08;;
23614;SDS011;11985;49.404;7.734;2024-02-16T16:10:48;4.05;;;2.33;;
23614;SDS011;11985;49.404;7.734;2024-02-16T16:15:50;5.07;;;2.22;;
23614;SDS011;11985;49.404;7.734;2024-02-16T16:20:53;6.50;;;2.33;;
23614;SDS011;11985;49.404;7.734;2024-02-16T16:25:56;6.72;;;2.60;;
23614;SDS011;11985;49.404;7.734;2024-02-16T16:30:59;9.48;;;2.72;;
23614;SDS011;11985;49.404;7.734;2024-02-16T16:36:02;5.53;;;2.60;;
23614;SDS011;11985;49.404;7.734;2024-02-16T16:41:13;5.75;;;2.72;;
23614;SDS011;11985;49.404;7.734;2024-02-16T16:46:17;6.35;;;3.28;;
23614;SDS011;11985;49.404;7.734;2024-02-16T16:51:20;7.20;;;3.10;;
23614;SDS011;11985;49.404;7.734;2024-02-16T16:56:22;7.65;;;3.40;;
23614;SDS011;11985;49.404;7.734;2024-02-16T17:01:24;5.65;;;3.25;;
23614;SDS011;11985;49.404;7.734;2024-02-16T17:06:31;8.27;;;3.70;;
23614;SDS011;11985;49.404;7.734;2024-02-16T17:11:33;6.18;;;3.30;;
23614;SDS011;11985;49.404;7.734;2024-02-16T17:16:35;7.43;;;4.00;;
23614;SDS011;11985;49.404;7.734;2024-02-16T17:21:40;5.95;;;3.40;;
23614;SDS011;11985;49.404;7.734;2024-02-16T17:26:42;7.90;;;4.13;;
23614;SDS011;11985;49.404;7.734;2024-02-16T17:31:44;9.32;;;4.15;;
23614;SDS011;11985;49.404;7.734;2024-02-16T17:36:47;7.13;;;4.25;;
23614;SDS011;11985;49.404;7.734;2024-02-16T17:41:49;9.23;;;3.97;;
23614;SDS011;11985;49.404;7.734;2024-02-16T17:46:51;8.70;;;4.57;;
23614;SDS011;11985;49.404;7.734;2024-02-16T17:51:53;9.10;;;4.78;;
23614;SDS011;11985;49.404;7.734;2024-02-16T17:56:55;11.70;;;4.88;;
23614;SDS011;11985;49.404;7.734;2024-02-16T18:01:58;11.57;;;5.00;;
23614;SDS011;11985;49.404;7.734;2024-02-16T18:07:03;9.13;;;3.75;;
23614;SDS011;11985;49.404;7.734;2024-02-16T18:12:05;8.40;;;4.07;;
23614;SDS011;11985;49.404;7.734;2024-02-16T18:17:07;9.73;;;4.38;;
23614;SDS011;11985;49.404;7.734;2024-02-16T18:22:14;6.50;;;4.38;;
23614;SDS011;11985;49.404;7.734;2024-02-16T18:27:15;8.98;;;4.65;;
23614;SDS011;11985;49.404;7.734;2024-02-16T18:32:18;7.50;;;4.88;;
23614;SDS011;11985;49.404;7.734;2024-02-16T18:37:21;8.38;;;4.53;;
23614;SDS011;11985;49.404;7.734;2024-02-16T18:42:24;9.40;;;4.72;;
23614;SDS011;11985;49.404;7.734;2024-02-16T18:47:27;8.70;;;5.05;;
23614;SDS011;11985;49.404;7.734;2024-02-16T18:52:30;8.38;;;4.15;;
23614;SDS011;11985;49.404;7.734;2024-02-16T18:57:33;6.75;;;3.95;;
23614;SDS011;11985;49.404;7.734;2024-02-16T19:02:34;10.35;;;4.25;;
23614;SDS011;11985;49.404;7.734;2024-02-16T19:07:43;8.27;;;4.38;;
23614;SDS011;11985;49.404;7.734;2024-02-16T19:12:47;4.93;;;4.15;;
23614;SDS011;11985;49.404;7.734;2024-02-16T19:17:50;5.30;;;4.18;;
23614;SDS011;11985;49.404;7.734;2024-02-16T19:22:53;7.25;;;4.20;;
23614;SDS011;11985;49.404;7.734;2024-02-16T19:27:55;6.60;;;4.25;;
23614;SDS011;11985;49.404;7.734;2024-02-16T19:32:58;6.00;;;4.63;;
23614;SDS011;11985;49.404;7.734;2024-02-16T19:38:01;7.05;;;4.25;;
23614;SDS011;11985;49.404;7.734;2024-02-16T19:43:03;4.47;;;3.78;;
23614;SDS011;11985;49.404;7.734;2024-02-16T19:48:07;6.47;;;3.77;;
23614;SDS011;11985;49.404;7.734;2024-02-16T19:53:10;4.88;;;4.25;;
23614;SDS011;11985;49.404;7.734;2024-02-16T19:58:13;5.50;;;4.03;;
23614;SDS011;11985;49.404;7.734;2024-02-16T20:03:14;4.90;;;3.85;;
23614;SDS011;11985;49.404;7.734;2024-02-16T20:08:18;5.32;;;4.10;;
23614;SDS011;11985;49.404;7.734;2024-02-16T20:13:20;6.03;;;3.80;;
23614;SDS011;11985;49.404;7.734;2024-02-16T20:18:22;5.43;;;3.95;;
23614;SDS011;11985;49.404;7.734;2024-02-16T20:23:30;9.52;;;4.60;;
23614;SDS011;11985;49.404;7.734;2024-02-16T20:28:32;5.03;;;4.32;;
23614;SDS011;11985;49.404;7.734;2024-02-16T20:33:34;5.18;;;4.22;;
23614;SDS011;11985;49.404;7.734;2024-02-16T20:38:38;6.72;;;4.90;;
23614;SDS011;11985;49.404;7.734;2024-02-16T20:43:42;6.93;;;4.95;;
23614;SDS011;11985;49.404;7.734;2024-02-16T20:48:44;7.13;;;5.40;;
23614;SDS011;11985;49.404;7.734;2024-02-16T20:53:49;6.95;;;5.70;;
23614;SDS011;11985;49.404;7.734;2024-02-16T20:58:51;11.45;;;6.00;;
23614;SDS011;11985;49.404;7.734;2024-02-16T21:03:53;8.45;;;5.95;;
23614;SDS011;11985;49.404;7.734;2024-02-16T21:08:57;10.18;;;7.10;;
23614;SDS011;11985;49.404;7.734;2024-02-16T21:13:58;8.80;;;6.70;;
23614;SDS011;11985;49.404;7.734;2024-02-16T21:19:00;13.52;;;7.57;;
23614;SDS011;11985;49.404;7.734;2024-02-16T21:24:04;12.85;;;8.05;;
23614;SDS011;11985;49.404;7.734;2024-02-16T21:29:07;9.60;;;7.87;;
23614;SDS011;11985;49.404;7.734;2024-02-16T21:34:09;10.82;;;8.43;;
23614;SDS011;11985;49.404;7.734;2024-02-16T21:39:12;12.38;;;8.90;;
23614;SDS011;11985;49.404;7.734;2024-02-16T21:44:15;13.48;;;10.10;;
23614;SDS011;11985;49.404;7.734;2024-02-16T21:49:16;19.40;;;10.80;;
23614;SDS011;11985;49.404;7.734;2024-02-16T21:54:22;15.80;;;10.87;;
23614;SDS011;11985;49.404;7.734;2024-02-16T21:59:24;14.50;;;11.30;;
23614;SDS011;11985;49.404;7.734;2024-02-16T22:04:25;17.10;;;10.95;;
23614;SDS011;11985;49.404;7.734;2024-02-16T22:09:29;17.02;;;11.27;;
23614;SDS011;11985;49.404;7.734;2024-02-16T22:14:31;20.02;;;13.60;;
23614;SDS011;11985;49.404;7.734;2024-02-16T22:19:33;17.85;;;12.13;;
23614;SDS011;11985;49.404;7.734;2024-02-16T22:24:37;19.98;;;12.43;;
23614;SDS011;11985;49.404;7.734;2024-02-16T22:29:40;22.00;;;13.43;;
23614;SDS011;11985;49.404;7.734;2024-02-16T22:34:41;15.75;;;10.70;;
23614;SDS011;11985;49.404;7.734;2024-02-16T22:39:47;15.45;;;11.27;;
23614;SDS011;11985;49.404;7.734;2024-02-16T22:44:52;15.85;;;10.82;;
23614;SDS011;11985;49.404;7.734;2024-02-16T22:49:56;34.33;;;20.33;;
23614;SDS011;11985;49.404;7.734;2024-02-16T22:54:59;14.85;;;10.10;;
23614;SDS011;11985;49.404;7.734;2024-02-16T23:00:01;13.15;;;8.45;;
23614;SDS011;11985;49.404;7.734;2024-02-16T23:05:11;9.30;;;6.15;;
23614;SDS011;11985;49.404;7.734;2024-02-16T23:10:15;10.77;;;6.15;;
23614;SDS011;11985;49.404;7.734;2024-02-16T23:15:18;11.20;;;6.43;;
23614;SDS011;11985;49.404;7.734;2024-02-16T23:20:23;15.25;;;7.70;;
23614;SDS011;11985;49.404;7.734;2024-02-16T23:25:26;13.23;;;7.85;;
23614;SDS011;11985;49.404;7.734;2024-02-16T23:30:28;9.90;;;6.67;;
23614;SDS011;11985;49.404;7.734;2024-02-16T23:35:30;11.25;;;7.03;;
23614;SDS011;11985;49.404;7.734;2024-02-16T23:40:35;10.60;;;6.97;;
23614;SDS011;11985;49.404;7.734;2024-02-16T23:45:36;10.93;;;6.43;;
23614;SDS011;11985;49.404;7.734;2024-02-16T23:50:39;9.73;;;6.53;;
23614;SDS011;11985;49.404;7.734;2024-02-16T23:55:42;11.00;;;7.15;;
